Time;durP1;ratioP1;P1;durP2;ratioP2;P2;SDS_P1;SDS_P2;PMS_P1;PMS_P2;Temp;Humidity;BMP_temperature;BMP_pressure;BME280_temperature;BME280_humidity;BME280_pressure;Samples;Min_cycle;Max_cycle;Signal;HPM_P1;HPM_P2
2023/01/27 00:02:02;;;;;;;8.37;5.57;;;;;;;2.04;100.00;93634.38;5053522;28;20185;-53
2023/01/27 00:04:28;;;;;;;8.17;5.30;;;;;;;2.12;100.00;93637.94;5053655;28;20217;-54
2023/01/27 00:06:53;;;;;;;7.73;5.30;;;;;;;2.04;100.00;93626.84;5053766;28;20181;-52
2023/01/27 00:09:18;;;;;;;8.90;4.83;;;;;;;1.88;100.00;93584.50;5053544;28;20586;-52
2023/01/27 00:14:28;;;;;;;7.80;5.77;;;;;;;1.99;100.00;93608.81;5053851;28;20235;-54
2023/01/27 00:16:53;;;;;;;9.37;5.83;;;;;;;1.83;100.00;93605.75;5053679;28;20283;-55
2023/01/27 00:19:18;;;;;;;7.73;5.03;;;;;;;1.97;100.00;93598.09;5053733;28;20263;-54
2023/01/27 00:24:35;;;;;;;8.53;5.67;;;;;;;2.05;100.00;93588.34;5053722;28;20228;-53
2023/01/27 00:27:01;;;;;;;7.90;5.20;;;;;;;2.26;100.00;93605.19;5053390;28;20196;-55
2023/01/27 00:29:27;;;;;;;9.43;5.90;;;;;;;2.11;100.00;93608.78;5051862;28;20683;-54
2023/01/27 00:34:38;;;;;;;7.33;5.07;;;;;;;1.99;100.00;93594.59;5053578;28;20275;-53
2023/01/27 00:37:03;;;;;;;7.90;5.17;;;;;;;1.98;100.00;93577.94;5053408;28;20197;-53
2023/01/27 00:39:29;;;;;;;6.03;4.60;;;;;;;1.87;100.00;93572.88;5053289;28;20255;-53
2023/01/27 00:41:54;;;;;;;7.13;4.57;;;;;;;1.87;100.00;93572.88;5053142;28;20193;-53
2023/01/27 00:44:20;;;;;;;6.50;4.73;;;;;;;1.89;100.00;93571.06;5053573;28;20217;-55
2023/01/27 00:46:45;;;;;;;7.27;4.80;;;;;;;2.08;100.00;93603.97;5053027;28;20239;-52
2023/01/27 00:49:12;;;;;;;7.73;5.23;;;;;;;2.11;100.00;93612.97;5052920;28;20252;-56
2023/01/27 00:51:38;;;;;;;8.60;5.27;;;;;;;2.17;100.00;93618.38;5052852;28;20177;-55
2023/01/27 00:54:13;;;;;;;7.47;5.60;;;;;;;2.03;100.00;93592.66;5052836;28;20233;-55
2023/01/27 00:56:39;;;;;;;7.37;5.27;;;;;;;2.11;100.00;93628.81;5067064;28;20189;-54
2023/01/27 00:59:05;;;;;;;8.37;5.23;;;;;;;2.11;100.00;93618.00;5053179;28;20283;-53
2023/01/27 01:01:31;;;;;;;5.23;4.40;;;;;;;2.26;100.00;93619.47;5052731;28;20224;-54
2023/01/27 01:03:59;;;;;;;6.97;4.83;;;;;;;2.20;100.00;93607.34;5052966;28;20217;-55
2023/01/27 01:06:26;;;;;;;7.43;5.20;;;;;;;1.96;100.00;93574.75;5052816;28;20598;-57
2023/01/27 01:08:51;;;;;;;6.97;4.57;;;;;;;2.04;100.00;93562.47;5052772;28;20213;-53
2023/01/27 01:11:19;;;;;;;8.23;4.73;;;;;;;2.11;100.00;93572.88;5052757;28;20219;-57
2023/01/27 01:13:47;;;;;;;6.53;4.27;;;;;;;2.01;100.00;93575.25;5052731;28;20228;-55
2023/01/27 01:16:18;;;;;;;6.93;4.53;;;;;;;2.13;100.00;93586.91;5068167;28;20243;-57
2023/01/27 01:18:44;;;;;;;5.33;4.00;;;;;;;1.85;100.00;93566.38;5068122;28;20217;-52
2023/01/27 01:21:11;;;;;;;6.27;4.13;;;;;;;1.66;100.00;93552.59;5052544;28;20640;-55
2023/01/27 01:23:39;;;;;;;7.17;4.60;;;;;;;1.66;100.00;93562.63;5052561;28;20224;-55
2023/01/27 01:26:05;;;;;;;5.63;4.20;;;;;;;1.40;100.00;93533.53;5052629;28;20602;-53
2023/01/27 01:28:31;;;;;;;6.57;4.90;;;;;;;1.77;100.00;93561.91;5052726;28;20217;-54
2023/01/27 01:31:03;;;;;;;5.87;4.10;;;;;;;1.82;100.00;93557.34;5052329;28;20189;-55
2023/01/27 01:33:29;;;;;;;7.23;4.80;;;;;;;1.85;100.00;93572.19;5052342;28;20222;-55
2023/01/27 01:35:54;;;;;;;6.40;4.30;;;;;;;2.07;100.00;93592.34;5052033;28;20192;-54
2023/01/27 01:38:19;;;;;;;15.30;4.43;;;;;;;2.21;100.00;93624.78;5052477;28;20297;-53
2023/01/27 01:40:45;;;;;;;8.77;5.03;;;;;;;2.25;100.00;93633.69;5052325;28;20204;-54
2023/01/27 01:43:16;;;;;;;5.60;4.17;;;;;;;2.12;100.00;93624.63;5052242;28;20208;-55
2023/01/27 01:45:47;;;;;;;9.87;5.43;;;;;;;1.82;100.00;93581.63;5052203;28;20197;-54
2023/01/27 01:48:24;;;;;;;7.00;4.70;;;;;;;1.86;100.00;93575.50;5050900;28;20212;-54
2023/01/27 01:50:55;;;;;;;7.40;4.53;;;;;;;1.83;100.00;93574.00;5050861;28;20200;-54
2023/01/27 01:53:28;;;;;;;6.50;4.73;;;;;;;1.81;100.00;93554.97;5052013;28;20228;-54
2023/01/27 01:55:55;;;;;;;6.53;4.53;;;;;;;1.86;100.00;93560.47;5052160;28;20193;-52
2023/01/27 01:58:20;;;;;;;7.77;4.67;;;;;;;2.08;100.00;93578.13;5052063;28;20611;-55
2023/01/27 02:00:46;;;;;;;9.63;5.23;;;;;;;2.16;100.00;93588.41;5050690;28;20592;-54
2023/01/27 02:03:12;;;;;;;7.80;5.60;;;;;;;1.85;100.00;93551.34;5051696;28;20241;-53
2023/01/27 02:05:43;;;;;;;7.67;4.83;;;;;;;1.89;100.00;93547.72;5051767;28;20196;-52
2023/01/27 02:08:15;;;;;;;9.60;5.57;;;;;;;1.90;100.00;93535.09;5066974;28;20232;-54
2023/01/27 02:10:41;;;;;;;7.97;5.43;;;;;;;1.97;100.00;93527.94;5052128;28;20192;-54
2023/01/27 02:13:07;;;;;;;7.90;5.10;;;;;;;2.08;100.00;93523.00;5051670;28;20271;-56
2023/01/27 02:15:33;;;;;;;7.83;4.80;;;;;;;2.18;100.00;93536.47;5051618;28;20221;-54
2023/01/27 02:18:00;;;;;;;9.73;6.40;;;;;;;2.07;100.00;93526.41;5051728;28;20258;-55
2023/01/27 02:20:28;;;;;;;10.70;6.47;;;;;;;2.06;100.00;93514.78;5051943;28;20196;-52
2023/01/27 02:23:19;;;;;;;16.53;8.80;;;;;;;1.29;100.00;93510.97;5051441;28;20232;-55
2023/01/27 02:25:49;;;;;;;14.63;8.33;;;;;;;1.24;100.00;93520.47;5051595;28;20268;-54
2023/01/27 02:28:15;;;;;;;13.57;8.80;;;;;;;1.41;100.00;93511.81;5051752;28;20226;-52
2023/01/27 02:30:41;;;;;;;15.83;9.20;;;;;;;1.63;100.00;93521.97;5051332;28;20260;-55
2023/01/27 02:33:12;;;;;;;13.80;8.90;;;;;;;1.66;100.00;93516.75;5051429;28;20279;-55
2023/01/27 02:35:57;;;;;;;15.30;8.50;;;;;;;1.84;100.00;93517.19;5051517;28;20185;-55
2023/01/27 02:38:24;;;;;;;16.43;9.07;;;;;;;1.93;100.00;93517.34;5051481;28;20710;-56
2023/01/27 02:40:53;;;;;;;15.47;9.00;;;;;;;2.05;100.00;93524.00;5051245;28;20181;-54
2023/01/27 02:43:19;;;;;;;16.57;10.43;;;;;;;2.03;100.00;93525.00;5051078;28;20205;-56
2023/01/27 02:45:46;;;;;;;13.80;8.73;;;;;;;1.79;100.00;93504.97;5051258;28;20694;-52
2023/01/27 02:48:12;;;;;;;13.30;8.30;;;;;;;1.91;100.00;93533.38;5051189;28;20213;-57
2023/01/27 02:50:38;;;;;;;12.37;7.80;;;;;;;1.78;100.00;93540.16;5051267;28;20216;-55
2023/01/27 02:53:03;;;;;;;11.20;7.37;;;;;;;1.64;100.00;93516.84;5051170;28;20636;-55
2023/01/27 02:55:28;;;;;;;12.47;7.63;;;;;;;1.75;100.00;93550.38;5051085;28;20181;-55
2023/01/27 02:57:54;;;;;;;12.57;8.10;;;;;;;1.63;100.00;93540.31;5051162;28;20619;-53
2023/01/27 03:00:19;;;;;;;12.03;7.87;;;;;;;1.37;100.00;93522.94;5049703;28;20188;-56
2023/01/27 03:02:45;;;;;;;12.93;8.50;;;;;;;1.21;100.00;93520.66;5051129;28;20210;-55
2023/01/27 03:05:12;;;;;;;13.03;7.63;;;;;;;0.82;100.00;93510.81;5051166;28;20199;-55
2023/01/27 03:07:37;;;;;;;11.27;6.87;;;;;;;0.77;100.00;93522.78;5050805;28;20229;-54
2023/01/27 03:10:03;;;;;;;10.60;7.33;;;;;;;0.92;100.00;93526.81;5051037;28;20255;-53
2023/01/27 03:12:28;;;;;;;9.93;7.03;;;;;;;1.26;100.00;93513.66;5049179;28;20221;-52
2023/01/27 03:20:22;;;;;;;13.50;8.27;;;;;;;1.38;100.00;93492.00;5049907;28;20658;-53
2023/01/27 03:22:48;;;;;;;29.37;16.00;;;;;;;1.46;100.00;93497.28;5050957;28;20217;-55
2023/01/27 03:25:15;;;;;;;14.90;9.23;;;;;;;1.29;100.00;93498.44;5049461;28;20199;-54
2023/01/27 03:27:40;;;;;;;13.53;8.10;;;;;;;1.23;100.00;93490.53;5051008;28;20213;-54
2023/01/27 03:30:08;;;;;;;16.40;7.97;;;;;;;1.02;100.00;93480.28;5050815;28;20197;-53
2023/01/27 03:32:33;;;;;;;14.70;8.37;;;;;;;1.35;100.00;93478.00;5050653;28;20752;-53
2023/01/27 03:35:00;;;;;;;13.83;9.27;;;;;;;1.17;100.00;93470.94;5050576;28;20726;-53
2023/01/27 03:46:15;;;;;;;16.07;8.87;;;;;;;0.54;100.00;93444.31;5051000;28;20247;-53
2023/01/27 03:48:41;;;;;;;14.00;8.43;;;;;;;0.60;100.00;93453.13;5050673;28;20217;-55
2023/01/27 03:51:08;;;;;;;16.87;10.23;;;;;;;0.54;100.00;93463.50;5050677;28;20567;-54
2023/01/27 03:53:35;;;;;;;19.70;9.90;;;;;;;0.67;100.00;93462.59;5050468;28;20221;-55
2023/01/27 03:56:01;;;;;;;17.93;10.40;;;;;;;0.47;100.00;93465.59;5050511;28;20227;-53
2023/01/27 03:58:32;;;;;;;15.13;9.73;;;;;;;0.65;100.00;93458.59;5049102;28;20213;-52
2023/01/27 04:01:00;;;;;;;16.87;10.70;;;;;;;0.88;100.00;93452.06;5050467;28;20181;-53
2023/01/27 04:09:01;;;;;;;17.70;9.33;;;;;;;1.27;100.00;93507.72;5050212;28;20298;-56
2023/01/27 04:14:12;;;;;;;14.57;9.50;;;;;;;1.55;100.00;93530.00;5050357;28;20228;-54
2023/01/27 04:16:38;;;;;;;13.33;8.60;;;;;;;1.07;100.00;93528.28;5050053;28;20196;-55
2023/01/27 04:19:05;;;;;;;14.80;8.27;;;;;;;1.21;100.00;93530.66;5049927;28;20243;-54
2023/01/27 04:21:31;;;;;;;11.73;7.93;;;;;;;1.33;100.00;93529.88;5049958;28;20671;-53
2023/01/27 04:23:56;;;;;;;14.33;8.70;;;;;;;1.17;100.00;93514.25;5050100;28;20698;-53
2023/01/27 04:26:25;;;;;;;15.33;9.20;;;;;;;1.31;100.00;93521.66;5050391;28;20215;-56
2023/01/27 04:28:51;;;;;;;13.60;9.23;;;;;;;1.07;100.00;93530.78;5049238;28;20218;-60
2023/01/27 04:31:17;;;;;;;12.50;8.67;;;;;;;1.06;100.00;93541.69;5051712;28;20509;-57
2023/01/27 04:33:43;;;;;;;16.33;8.73;;;;;;;1.08;100.00;93546.59;5053485;28;20221;-54
2023/01/27 04:36:12;;;;;;;12.40;7.97;;;;;;;1.09;100.00;93535.72;5053289;28;20281;-57
2023/01/27 04:38:38;;;;;;;13.17;8.27;;;;;;;1.27;100.00;93539.50;5053052;28;20293;-54
2023/01/27 04:41:03;;;;;;;12.70;7.23;;;;;;;1.26;100.00;93547.88;5053377;28;20217;-54
2023/01/27 04:43:29;;;;;;;11.33;7.47;;;;;;;1.37;100.00;93550.47;5052988;28;20236;-55
2023/01/27 04:45:54;;;;;;;11.30;7.27;;;;;;;0.90;100.00;93500.28;5053473;28;20648;-55
2023/01/27 04:48:20;;;;;;;13.50;8.33;;;;;;;1.05;100.00;93539.31;5053305;28;20210;-54
2023/01/27 04:50:45;;;;;;;15.70;9.90;;;;;;;1.28;100.00;93531.06;5053348;28;20240;-56
2023/01/27 04:53:11;;;;;;;54.90;29.80;;;;;;;1.42;100.00;93549.25;5053397;28;20667;-55
2023/01/27 04:55:36;;;;;;;37.37;20.63;;;;;;;1.52;100.00;93549.44;5053072;28;20234;-54
2023/01/27 04:58:03;;;;;;;12.33;8.13;;;;;;;1.75;100.00;93550.38;5052783;28;20600;-56
2023/01/27 05:00:29;;;;;;;13.77;8.27;;;;;;;1.81;100.00;93552.47;5052979;28;20189;-56
2023/01/27 05:02:54;;;;;;;17.77;10.73;;;;;;;1.87;100.00;93567.88;5053074;28;20216;-56
2023/01/27 05:05:20;;;;;;;17.90;10.97;;;;;;;1.95;100.00;93562.34;5052659;28;20272;-54
2023/01/27 05:07:45;;;;;;;9.63;6.20;;;;;;;1.79;100.00;93551.75;5052792;28;20297;-55
2023/01/27 05:10:11;;;;;;;12.47;6.23;;;;;;;1.63;100.00;93530.28;5052868;28;20699;-58
2023/01/27 05:12:36;;;;;;;9.53;6.53;;;;;;;1.76;100.00;93554.50;5052434;28;20348;-54
2023/01/27 05:15:02;;;;;;;10.37;5.13;;;;;;;1.73;100.00;93550.50;5053046;28;20186;-55
2023/01/27 05:17:32;;;;;;;10.57;5.07;;;;;;;1.61;100.00;93549.63;5051905;28;20233;-56
2023/01/27 05:19:59;;;;;;;7.57;4.73;;;;;;;1.60;100.00;93547.22;5053160;28;20207;-55
2023/01/27 05:22:25;;;;;;;6.57;4.03;;;;;;;1.46;100.00;93544.84;5052661;28;20192;-53
2023/01/27 05:24:51;;;;;;;7.40;3.97;;;;;;;1.52;100.00;93527.72;5052583;28;21175;-56
2023/01/27 05:27:16;;;;;;;6.80;4.30;;;;;;;1.42;100.00;93529.22;5052318;28;20188;-56
2023/01/27 05:29:42;;;;;;;7.73;4.17;;;;;;;1.55;100.00;93525.00;5052454;28;20197;-54
2023/01/27 05:32:08;;;;;;;4.93;3.70;;;;;;;1.62;100.00;93505.34;5052356;28;20576;-54
2023/01/27 05:34:33;;;;;;;7.67;5.00;;;;;;;4.03;100.00;93526.75;5052421;28;20227;-54
2023/01/27 05:36:59;;;;;;;10.47;7.13;;;;;;;5.80;100.00;93530.66;5052402;28;20193;-60
2023/01/27 05:39:24;;;;;;;6.53;4.50;;;;;;;4.65;100.00;93525.13;5052501;28;20719;-61
2023/01/27 05:41:50;;;;;;;8.10;3.80;;;;;;;3.94;100.00;93502.34;5058023;22;21416;-58
2023/01/27 05:44:15;;;;;;;7.90;4.30;;;;;;;3.48;100.00;93547.75;5051889;28;20221;-60
2023/01/27 05:46:41;;;;;;;8.03;4.20;;;;;;;3.07;100.00;93538.28;5050797;28;20187;-61
2023/01/27 05:49:06;;;;;;;5.50;4.43;;;;;;;2.83;100.00;93536.78;5052263;28;20257;-60
2023/01/27 05:51:38;;;;;;;7.47;4.63;;;;;;;2.34;100.00;93521.94;5052256;28;20205;-57
2023/01/27 05:54:04;;;;;;;5.87;4.47;;;;;;;2.03;100.00;93525.00;5051958;28;20267;-57
2023/01/27 05:56:30;;;;;;;8.07;4.73;;;;;;;1.78;100.00;93530.16;5052076;28;20180;-59
2023/01/27 05:58:57;;;;;;;6.87;5.13;;;;;;;1.84;100.00;93528.00;5051952;28;20213;-60
2023/01/27 06:01:40;;;;;;;8.43;4.37;;;;;;;1.48;100.00;93538.84;5051973;28;20181;-58
2023/01/27 06:04:05;;;;;;;7.37;5.37;;;;;;;1.76;100.00;93535.25;5052107;28;20674;-58
2023/01/27 06:06:32;;;;;;;7.27;4.83;;;;;;;1.46;100.00;93533.13;5051833;28;20643;-62
2023/01/27 06:08:58;;;;;;;8.27;5.30;;;;;;;1.69;100.00;93527.38;5051739;28;20325;-58
2023/01/27 06:11:24;;;;;;;12.00;5.97;;;;;;;1.78;100.00;93527.63;5051819;28;22121;-57
2023/01/27 06:13:51;;;;;;;15.33;7.00;;;;;;;1.67;100.00;93523.34;5051788;28;20374;-60
2023/01/27 06:16:18;;;;;;;9.50;6.73;;;;;;;1.54;100.00;93533.41;5051606;28;20182;-59
2023/01/27 06:18:44;;;;;;;10.63;6.47;;;;;;;1.44;100.00;93526.63;5050190;28;20221;-59
2023/01/27 06:21:12;;;;;;;11.23;6.30;;;;;;;1.54;100.00;93537.59;5051617;28;20190;-59
2023/01/27 06:23:38;;;;;;;11.13;6.30;;;;;;;1.66;100.00;93496.72;5051630;28;20221;-58
2023/01/27 06:26:09;;;;;;;12.80;7.07;;;;;;;1.68;100.00;93550.78;5051649;28;20208;-57
2023/01/27 06:28:36;;;;;;;12.53;8.43;;;;;;;1.35;100.00;93519.75;5050271;28;20221;-60
2023/01/27 06:31:07;;;;;;;12.97;7.97;;;;;;;1.44;100.00;93531.63;5051578;28;20198;-60
2023/01/27 06:33:32;;;;;;;11.43;7.70;;;;;;;1.33;100.00;93536.56;5051291;28;20225;-57
2023/01/27 06:36:04;;;;;;;12.67;7.47;;;;;;;1.21;100.00;93527.38;5051561;28;20182;-58
2023/01/27 06:38:29;;;;;;;13.37;7.73;;;;;;;1.19;100.00;93534.19;5051187;28;20216;-58
2023/01/27 06:40:55;;;;;;;20.63;9.53;;;;;;;0.99;100.00;93537.22;5051471;28;20683;-60
2023/01/27 06:43:20;;;;;;;11.60;7.70;;;;;;;0.93;100.00;93540.13;5051565;28;20208;-56
2023/01/27 06:45:49;;;;;;;12.20;7.00;;;;;;;0.80;100.00;93540.91;5050050;28;20188;-59
2023/01/27 06:48:14;;;;;;;11.23;6.70;;;;;;;0.68;100.00;93546.72;5051528;28;20211;-57
2023/01/27 06:50:40;;;;;;;14.70;7.77;;;;;;;0.74;100.00;93550.50;5051363;28;20283;-59
2023/01/27 06:53:06;;;;;;;11.40;6.97;;;;;;;0.64;100.00;93557.00;5051193;28;20209;-59
2023/01/27 06:55:32;;;;;;;11.97;7.67;;;;;;;0.52;100.00;93558.59;5051214;28;20870;-58
2023/01/27 06:58:00;;;;;;;12.10;7.43;;;;;;;0.28;100.00;93496.88;5051681;28;20212;-60
2023/01/27 07:00:25;;;;;;;10.60;7.20;;;;;;;0.89;100.00;93568.72;5051100;28;20679;-61
2023/01/27 07:02:54;;;;;;;9.63;6.53;;;;;;;0.80;100.00;93573.44;5066280;28;20241;-59
2023/01/27 07:05:20;;;;;;;11.47;6.50;;;;;;;0.72;100.00;93567.31;5051268;28;20205;-60
2023/01/27 07:07:46;;;;;;;12.33;6.20;;;;;;;0.81;100.00;93581.72;5051164;28;20215;-59
2023/01/27 07:10:11;;;;;;;12.30;6.63;;;;;;;0.95;100.00;93580.84;5051219;28;20273;-60
2023/01/27 07:12:37;;;;;;;10.80;6.47;;;;;;;0.75;100.00;93562.09;5051117;28;20209;-59
2023/01/27 07:15:07;;;;;;;14.37;6.30;;;;;;;0.83;100.00;93572.41;5050991;28;20193;-59
2023/01/27 07:17:32;;;;;;;9.33;5.93;;;;;;;0.90;100.00;93566.13;5050815;28;20205;-60
2023/01/27 07:19:58;;;;;;;10.27;6.63;;;;;;;0.56;100.00;93561.69;5050909;28;20200;-60
2023/01/27 07:22:24;;;;;;;11.70;6.87;;;;;;;0.59;100.00;93547.28;5050937;28;20185;-61
2023/01/27 07:24:49;;;;;;;9.53;6.20;;;;;;;0.59;100.00;93554.00;5050764;28;20186;-60
2023/01/27 07:27:14;;;;;;;9.60;6.40;;;;;;;0.52;100.00;93546.09;5033044;28;20197;-61
2023/01/27 07:29:40;;;;;;;9.87;7.27;;;;;;;0.64;100.00;93562.81;5050820;28;20201;-59
2023/01/27 07:32:06;;;;;;;13.47;7.77;;;;;;;0.60;100.00;93558.91;5050744;28;20685;-59
2023/01/27 07:34:32;;;;;;;12.10;7.53;;;;;;;0.74;100.00;93560.50;5050694;28;20257;-59
2023/01/27 07:36:58;;;;;;;16.17;8.00;;;;;;;0.73;100.00;93558.91;5050775;28;20189;-61
2023/01/27 07:39:25;;;;;;;14.53;8.93;;;;;;;1.26;100.00;93562.91;5050974;28;20221;-60
2023/01/27 07:41:51;;;;;;;13.53;7.37;;;;;;;0.97;100.00;93572.31;5050806;28;20186;-60
2023/01/27 07:44:16;;;;;;;11.80;7.60;;;;;;;0.83;100.00;93570.72;5050671;28;20232;-58
2023/01/27 07:46:42;;;;;;;10.17;6.70;;;;;;;0.81;100.00;93571.72;5050569;28;20200;-58
2023/01/27 07:49:09;;;;;;;12.17;7.50;;;;;;;0.90;100.00;93565.31;5050497;28;20233;-59
2023/01/27 07:51:35;;;;;;;13.80;8.40;;;;;;;1.05;100.00;93561.81;5066446;28;20186;-59
2023/01/27 07:54:00;;;;;;;12.67;7.67;;;;;;;1.09;100.00;93575.72;5050364;28;20699;-60
2023/01/27 07:56:26;;;;;;;14.03;8.27;;;;;;;0.82;100.00;93558.31;5050561;28;20251;-59
2023/01/27 07:58:53;;;;;;;14.00;7.90;;;;;;;0.98;100.00;93568.94;5050642;28;20618;-59
2023/01/27 08:01:19;;;;;;;14.27;8.43;;;;;;;0.92;100.00;93564.31;5050290;28;20269;-58
2023/01/27 08:03:44;;;;;;;18.27;9.03;;;;;;;0.86;100.00;93544.72;5050292;28;20304;-59
2023/01/27 08:06:11;;;;;;;11.13;7.70;;;;;;;0.99;100.00;93564.72;5051879;28;20684;-58
2023/01/27 08:08:37;;;;;;;12.37;8.13;;;;;;;0.93;100.00;93570.91;5053917;28;20225;-58
2023/01/27 08:11:06;;;;;;;11.87;7.57;;;;;;;0.82;100.00;93546.63;5069452;28;20186;-58
2023/01/27 08:13:32;;;;;;;13.57;8.33;;;;;;;1.31;100.00;93565.91;5053752;28;20225;-57
2023/01/27 08:15:58;;;;;;;12.20;7.70;;;;;;;1.41;100.00;93562.69;5053633;28;20235;-59
2023/01/27 08:18:26;;;;;;;13.83;7.83;;;;;;;1.22;100.00;93557.31;5053779;28;20221;-60
2023/01/27 08:20:53;;;;;;;16.83;8.00;;;;;;;1.28;100.00;93548.56;5053716;28;20190;-59
2023/01/27 08:23:21;;;;;;;13.20;7.93;;;;;;;1.40;100.00;93547.75;5053502;28;20209;-59
2023/01/27 08:25:55;;;;;;;15.40;9.93;;;;;;;1.32;100.00;93563.28;5054075;28;20201;-58
2023/01/27 08:28:21;;;;;;;9.37;7.07;;;;;;;1.18;100.00;93573.41;5053785;28;20213;-56
2023/01/27 08:30:49;;;;;;;13.17;7.57;;;;;;;1.52;100.00;93566.97;5053184;28;20671;-59
2023/01/27 08:33:15;;;;;;;13.97;7.57;;;;;;;1.48;100.00;93573.88;5053505;28;20706;-59
2023/01/27 08:35:43;;;;;;;20.20;7.73;;;;;;;1.36;100.00;93582.22;5053445;28;20197;-59
2023/01/27 08:38:11;;;;;;;12.27;6.60;;;;;;;1.12;100.00;93571.31;5053876;28;20331;-59
2023/01/27 08:40:41;;;;;;;12.87;6.63;;;;;;;1.20;100.00;93576.63;5053409;28;20194;-58
2023/01/27 08:43:07;;;;;;;13.47;7.37;;;;;;;1.17;100.00;93588.53;5052904;28;20212;-58
2023/01/27 08:45:34;;;;;;;12.40;7.07;;;;;;;1.04;100.00;93578.53;5053080;28;20202;-61
2023/01/27 08:48:00;;;;;;;15.90;8.27;;;;;;;1.19;100.00;93567.50;5053090;28;20584;-59
2023/01/27 08:50:26;;;;;;;15.03;7.77;;;;;;;1.17;100.00;93584.31;5051822;28;20746;-59
2023/01/27 08:52:52;;;;;;;15.70;6.73;;;;;;;1.18;100.00;93583.44;5053431;28;20249;-59
2023/01/27 08:55:17;;;;;;;11.07;5.80;;;;;;;1.37;100.00;93583.81;5052989;28;20587;-59
2023/01/27 08:57:43;;;;;;;10.17;6.70;;;;;;;1.53;100.00;93561.88;5053387;28;20544;-59
2023/01/27 09:00:14;;;;;;;10.17;6.10;;;;;;;1.70;100.00;93591.56;5051845;28;20231;-60
2023/01/27 09:02:40;;;;;;;11.97;6.00;;;;;;;1.39;100.00;93586.22;5052858;28;20628;-61
2023/01/27 09:05:06;;;;;;;9.90;5.03;;;;;;;1.30;100.00;93587.63;5051921;28;20213;-58
2023/01/27 09:07:33;;;;;;;11.07;5.00;;;;;;;1.26;100.00;93585.41;5052993;28;20308;-59
2023/01/27 09:09:58;;;;;;;5.30;4.33;;;;;;;1.00;100.00;93562.13;5052751;28;20221;-55
2023/01/27 09:12:23;;;;;;;9.23;5.13;;;;;;;1.22;100.00;93552.28;5052779;28;20247;-58
2023/01/27 09:14:49;;;;;;;7.53;4.47;;;;;;;1.03;100.00;93581.91;5052959;28;20200;-58
2023/01/27 09:17:18;;;;;;;8.73;4.30;;;;;;;0.91;100.00;93572.72;5051715;28;20188;-60
2023/01/27 09:19:44;;;;;;;6.93;4.00;;;;;;;1.01;100.00;93583.72;5052861;28;20221;-58
2023/01/27 09:22:09;;;;;;;5.60;4.23;;;;;;;0.80;100.00;93555.94;5052988;28;20181;-58
2023/01/27 09:24:34;;;;;;;7.10;3.90;;;;;;;0.79;100.00;93543.50;5052534;28;20197;-57
2023/01/27 09:27:00;;;;;;;8.00;3.40;;;;;;;1.09;100.00;93559.00;5051657;28;20178;-59
2023/01/27 09:29:25;;;;;;;7.67;3.67;;;;;;;0.98;100.00;93578.13;5051727;28;20236;-56
2023/01/27 09:31:51;;;;;;;5.07;3.70;;;;;;;0.84;100.00;93536.50;5051344;28;20185;-59
2023/01/27 09:34:18;;;;;;;5.93;4.47;;;;;;;0.73;100.00;93556.41;5052480;28;20300;-55
2023/01/27 09:36:46;;;;;;;4.00;3.30;;;;;;;0.50;100.00;93542.09;5052607;28;20193;-59
2023/01/27 09:39:16;;;;;;;5.27;3.57;;;;;;;0.54;100.00;93533.50;5052651;28;20608;-61
2023/01/27 09:42:09;;;;;;;8.43;4.63;;;;;;;0.71;100.00;93544.00;5052855;28;20173;-58
2023/01/27 09:44:43;;;;;;;9.97;4.53;;;;;;;0.63;100.00;93532.88;5051710;28;20276;-57
2023/01/27 09:47:25;;;;;;;11.60;6.37;;;;;;;0.63;100.00;93523.69;5052658;28;20184;-58
2023/01/27 09:49:58;;;;;;;10.40;6.17;;;;;;;0.66;100.00;93533.50;5052582;28;20185;-58
2023/01/27 09:52:35;;;;;;;11.90;7.30;;;;;;;0.45;100.00;93534.06;5052431;28;20205;-56
2023/01/27 09:55:14;;;;;;;9.90;6.80;;;;;;;0.52;100.00;93530.31;5052194;28;20189;-60
2023/01/27 09:58:05;;;;;;;12.40;8.37;;;;;;;0.60;100.00;93518.91;5052321;28;20213;-59
2023/01/27 10:00:54;;;;;;;17.70;8.37;;;;;;;0.60;100.00;93516.41;5052093;28;20198;-58
2023/01/27 10:03:56;;;;;;;14.87;9.67;;;;;;;0.48;100.00;93493.91;5052553;28;20714;-58
2023/01/27 10:06:57;;;;;;;13.53;9.43;;;;;;;0.53;100.00;93514.38;5052533;28;20192;-60
2023/01/27 10:09:27;;;;;;;15.03;9.53;;;;;;;0.59;100.00;93511.50;5031048;28;20241;-56
2023/01/27 10:12:29;;;;;;;14.73;9.73;;;;;;;0.84;100.00;93517.31;5051942;28;20266;-57
2023/01/27 10:15:23;;;;;;;15.30;8.80;;;;;;;0.69;100.00;93515.00;5051672;28;20671;-57
2023/01/27 10:18:20;;;;;;;17.87;9.37;;;;;;;0.81;100.00;93504.19;5051820;28;20201;-60
2023/01/27 10:21:00;;;;;;;16.10;8.53;;;;;;;0.85;100.00;93516.41;5052010;28;20228;-58
2023/01/27 10:23:31;;;;;;;13.50;7.87;;;;;;;0.85;100.00;93508.91;5052066;28;20309;-57
2023/01/27 10:26:13;;;;;;;13.30;8.00;;;;;;;1.00;100.00;93512.09;5051859;28;20212;-58
2023/01/27 10:28:46;;;;;;;12.47;7.27;;;;;;;0.88;100.00;93512.91;5051254;28;20213;-58
2023/01/27 10:31:25;;;;;;;12.97;7.17;;;;;;;0.90;100.00;93510.28;5050782;28;20677;-60
2023/01/27 10:33:57;;;;;;;12.97;7.13;;;;;;;1.07;100.00;93513.28;5050559;28;20310;-56
2023/01/27 10:36:41;;;;;;;12.67;6.47;;;;;;;0.83;100.00;93505.69;5066984;28;20567;-58
2023/01/27 10:39:21;;;;;;;9.30;6.60;;;;;;;0.54;100.00;93498.50;5051521;28;20304;-60
2023/01/27 10:42:00;;;;;;;11.70;7.43;;;;;;;0.75;100.00;93507.09;5051489;28;20515;-57
2023/01/27 10:45:07;;;;;;;15.03;7.40;;;;;;;0.66;100.00;93510.22;5051370;28;20209;-57
2023/01/27 10:47:35;;;;;;;12.17;7.43;;;;;;;0.78;100.00;93511.91;5009615;28;20238;-58
2023/01/27 10:50:18;;;;;;;13.70;8.07;;;;;;;0.73;100.00;93491.38;5045245;28;20205;-58
2023/01/27 10:52:57;;;;;;;9.60;6.83;;;;;;;0.73;100.00;93499.69;5051588;28;20213;-59
2023/01/27 10:55:27;;;;;;;14.43;7.47;;;;;;;0.90;100.00;93498.59;5051563;28;20201;-58
2023/01/27 10:57:58;;;;;;;11.63;6.60;;;;;;;0.81;100.00;93505.00;5051391;28;20205;-56
2023/01/27 11:00:52;;;;;;;9.67;6.60;;;;;;;0.84;100.00;93506.50;5051317;28;20255;-58
2023/01/27 11:03:27;;;;;;;15.90;6.60;;;;;;;0.77;100.00;93502.78;5049641;28;20229;-58
2023/01/27 11:06:01;;;;;;;9.47;5.93;;;;;;;0.73;100.00;93503.88;5051143;28;20670;-58
2023/01/27 11:08:34;;;;;;;8.40;6.27;;;;;;;0.85;100.00;93493.09;5051779;28;20213;-57
2023/01/27 11:14:01;;;;;;;9.53;6.23;;;;;;;0.70;100.00;93481.59;5051320;28;20220;-58
2023/01/27 11:16:31;;;;;;;22.03;11.30;;;;;;;5.00;100.00;93482.78;5051040;28;20279;-59
2023/01/27 11:19:03;;;;;;;26.30;14.70;;;;;;;7.01;100.00;93475.41;5051008;28;20369;-58
2023/01/27 11:21:31;;;;;;;12.60;8.33;;;;;;;7.36;100.00;93494.97;5051026;28;20315;-56
2023/01/27 11:24:04;;;;;;;10.13;6.43;;;;;;;4.07;100.00;93588.44;5050961;28;20213;-57
2023/01/27 11:26:39;;;;;;;11.07;6.10;;;;;;;3.07;100.00;93475.53;5066433;28;20210;-59
2023/01/27 11:29:29;;;;;;;7.83;5.70;;;;;;;2.02;100.00;93476.59;5051101;28;20730;-57
2023/01/27 11:32:09;;;;;;;8.23;6.10;;;;;;;1.66;100.00;93472.47;5050962;28;20617;-59
2023/01/27 11:34:41;;;;;;;10.00;6.27;;;;;;;1.60;100.00;93479.59;5050947;28;20182;-58
2023/01/27 11:37:24;;;;;;;9.33;6.57;;;;;;;1.28;100.00;93455.97;5051265;28;20281;-62
2023/01/27 11:39:49;;;;;;;14.37;8.13;;;;;;;1.25;100.00;93474.50;5051000;28;20188;-59
2023/01/27 11:42:15;;;;;;;10.33;6.73;;;;;;;1.10;100.00;93470.56;5053655;28;20185;-55
2023/01/27 11:44:42;;;;;;;12.47;5.73;;;;;;;1.02;100.00;93475.25;5054046;28;20221;-57
2023/01/27 11:47:47;;;;;;;8.67;5.73;;;;;;;0.88;100.00;93457.88;5052937;28;20570;-58
2023/01/27 11:50:19;;;;;;;7.17;5.03;;;;;;;1.02;100.00;93454.44;5012648;28;20187;-58
2023/01/27 11:52:49;;;;;;;6.73;4.73;;;;;;;0.87;100.00;93465.50;5047125;28;20595;-57
2023/01/27 11:55:24;;;;;;;10.53;6.00;;;;;;;0.90;100.00;93468.59;5054009;28;20196;-59
2023/01/27 11:58:01;;;;;;;6.80;5.33;;;;;;;0.86;100.00;93469.69;5054466;28;20633;-56
2023/01/27 12:00:58;;;;;;;10.67;5.00;;;;;;;0.82;100.00;93473.28;5053967;28;20584;-56
2023/01/27 12:03:41;;;;;;;5.90;4.63;;;;;;;0.86;100.00;93467.19;5053327;28;20233;-57
2023/01/27 12:06:47;;;;;;;9.97;4.40;;;;;;;0.85;100.00;93463.06;5053854;28;20193;-56
2023/01/27 12:09:40;;;;;;;5.60;4.47;;;;;;;0.76;100.00;93466.19;5054076;28;20217;-58
2023/01/27 12:12:14;;;;;;;6.00;4.47;;;;;;;0.84;100.00;93471.50;5051985;28;20201;-58
2023/01/27 12:14:48;;;;;;;7.10;4.97;;;;;;;1.10;100.00;93455.53;5053500;28;20719;-58